Time;durP1;ratioP1;P1;durP2;ratioP2;P2;SDS_P1;SDS_P2;PMS_P1;PMS_P2;Temp;Humidity;BMP_temperature;BMP_pressure;BME280_temperature;BME280_humidity;BME280_pressure;Samples;Min_cycle;Max_cycle;Signal;HPM_P1;HPM_P2
2023/12/24 00:00:14;;;;;;;0.75;0.47;;;14.80;72.80;;;;;;5002272;28;20052;-82
2023/12/24 00:02:39;;;;;;;0.47;0.10;;;14.80;72.90;;;;;;4980657;28;20181;-81
2023/12/24 00:05:05;;;;;;;0.45;0.40;;;14.80;72.70;;;;;;4999084;28;20065;-82
2023/12/24 00:07:31;;;;;;;0.22;0.20;;;14.80;72.80;;;;;;5006538;28;20196;-82
2023/12/24 00:09:56;;;;;;;0.20;0.20;;;14.80;73.00;;;;;;4968897;28;20026;-82
2023/12/24 00:12:22;;;;;;;0.32;0.32;;;14.80;72.90;;;;;;4991222;28;20590;-82
2023/12/24 00:14:47;;;;;;;0.30;0.20;;;14.70;72.90;;;;;;4991494;28;20499;-82
2023/12/24 00:17:13;;;;;;;0.25;0.20;;;14.70;73.00;;;;;;4996729;28;20060;-82
2023/12/24 00:19:38;;;;;;;0.25;0.20;;;14.80;72.90;;;;;;4991902;28;20050;-82
2023/12/24 00:22:07;;;;;;;0.40;0.40;;;14.80;72.70;;;;;;4976281;28;20034;-81
2023/12/24 00:24:32;;;;;;;0.30;0.20;;;14.80;72.70;;;;;;4974923;28;20059;-82
2023/12/24 00:26:58;;;;;;;1.05;0.40;;;14.80;72.80;;;;;;5013222;28;20030;-82
2023/12/24 00:29:23;;;;;;;0.55;0.20;;;14.80;72.70;;;;;;4977606;28;20042;-82
2023/12/24 00:31:49;;;;;;;0.45;0.30;;;14.80;72.70;;;;;;4979122;28;20061;-82
2023/12/24 00:34:14;;;;;;;1.20;0.43;;;14.80;72.60;;;;;;4995506;28;20137;-82
2023/12/24 00:36:40;;;;;;;1.40;0.50;;;14.80;72.50;;;;;;4998308;28;20081;-82
2023/12/24 00:39:05;;;;;;;0.28;0.22;;;14.80;72.50;;;;;;4990453;28;20527;-82
2023/12/24 00:41:31;;;;;;;0.22;0.22;;;14.80;72.60;;;;;;4974647;28;20050;-82
2023/12/24 00:43:57;;;;;;;0.60;0.40;;;14.80;72.80;;;;;;4993685;28;20038;-82
2023/12/24 00:46:22;;;;;;;0.40;0.20;;;14.70;72.90;;;;;;4992136;28;20109;-82
2023/12/24 00:48:48;;;;;;;0.52;0.40;;;14.70;72.80;;;;;;4996940;28;20523;-82
2023/12/24 00:51:13;;;;;;;0.30;0.30;;;14.70;72.80;;;;;;5016602;28;20544;-82
2023/12/24 00:53:39;;;;;;;0.20;0.20;;;14.70;72.90;;;;;;4994963;28;20395;-82
2023/12/24 00:56:04;;;;;;;0.22;0.22;;;14.70;72.80;;;;;;4996321;28;20049;-82
2023/12/24 00:58:30;;;;;;;0.45;0.20;;;14.70;72.90;;;;;;4982701;28;20032;-82
2023/12/24 01:00:55;;;;;;;0.25;0.25;;;14.70;73.10;;;;;;4996041;28;20041;-82
2023/12/24 01:03:21;;;;;;;0.43;0.20;;;14.70;73.20;;;;;;4984239;28;20440;-82
2023/12/24 01:05:47;;;;;;;0.17;0.10;;;14.70;73.30;;;;;;4991228;28;20133;-82
2023/12/24 01:08:13;;;;;;;0.40;0.40;;;14.60;73.20;;;;;;4990928;28;20053;-82
2023/12/24 01:10:38;;;;;;;0.40;0.20;;;14.70;73.40;;;;;;4984049;28;20057;-82
2023/12/24 01:13:04;;;;;;;0.70;0.30;;;14.60;73.20;;;;;;4978105;28;21070;-82
2023/12/24 01:15:29;;;;;;;0.30;0.20;;;14.60;73.30;;;;;;4996992;28;20099;-82
2023/12/24 01:17:56;;;;;;;0.55;0.30;;;14.70;73.50;;;;;;4995207;28;20053;-82
2023/12/24 01:20:21;;;;;;;0.30;0.28;;;14.70;73.60;;;;;;4995894;28;20050;-82
2023/12/24 01:22:47;;;;;;;0.57;0.45;;;14.70;73.20;;;;;;4999625;28;20057;-82
2023/12/24 01:25:13;;;;;;;0.15;0.10;;;14.70;73.20;;;;;;4999008;28;20037;-82
2023/12/24 01:27:38;;;;;;;0.50;0.35;;;14.70;72.90;;;;;;5017710;28;20423;-82
2023/12/24 01:30:04;;;;;;;0.32;0.30;;;14.70;73.10;;;;;;5000401;28;20064;-82
2023/12/24 01:32:30;;;;;;;0.20;0.13;;;14.70;73.10;;;;;;5017166;28;20187;-82
2023/12/24 01:34:56;;;;;;;0.40;0.35;;;14.70;73.00;;;;;;4997276;28;20112;-82
2023/12/24 01:37:21;;;;;;;0.20;0.20;;;14.70;73.00;;;;;;5015994;28;20041;-82
2023/12/24 01:39:47;;;;;;;0.38;0.17;;;14.70;72.90;;;;;;4998378;28;20047;-82
2023/12/24 01:42:12;;;;;;;0.50;0.20;;;14.70;72.90;;;;;;4994123;28;20525;-82
2023/12/24 01:44:38;;;;;;;0.40;0.30;;;14.70;72.90;;;;;;4995876;28;20392;-82
2023/12/24 01:47:04;;;;;;;0.28;0.20;;;14.60;73.10;;;;;;4980314;28;20044;-82
2023/12/24 01:49:29;;;;;;;0.93;0.40;;;14.60;73.10;;;;;;4977226;28;20133;-82
2023/12/24 01:51:55;;;;;;;0.43;0.20;;;14.70;73.80;;;;;;4995192;28;20142;-82
2023/12/24 01:54:21;;;;;;;0.43;0.25;;;14.70;73.10;;;;;;4998468;28;20535;-82
2023/12/24 01:56:47;;;;;;;0.20;0.10;;;14.70;73.00;;;;;;4978108;28;20064;-82
2023/12/24 01:59:12;;;;;;;0.95;0.52;;;14.60;73.80;;;;;;4974543;28;20049;-83
2023/12/24 02:01:38;;;;;;;0.20;0.15;;;14.60;73.00;;;;;;5017127;28;20032;-82
2023/12/24 02:04:04;;;;;;;0.60;0.40;;;14.60;73.00;;;;;;4975508;28;20046;-83
2023/12/24 02:06:29;;;;;;;0.50;0.40;;;14.60;73.90;;;;;;4978096;28;20037;-81
2023/12/24 02:08:56;;;;;;;0.45;0.30;;;14.60;73.20;;;;;;4981594;28;20083;-82
2023/12/24 02:11:21;;;;;;;0.30;0.30;;;14.60;73.10;;;;;;4991744;28;20135;-82
2023/12/24 02:13:47;;;;;;;0.82;0.20;;;14.60;73.10;;;;;;4992073;28;20076;-82
2023/12/24 02:16:14;;;;;;;0.35;0.30;;;14.60;73.00;;;;;;4983132;28;20033;-82
2023/12/24 02:18:40;;;;;;;0.80;0.40;;;14.60;73.10;;;;;;4979336;28;20041;-82
2023/12/24 02:21:05;;;;;;;0.55;0.40;;;14.60;74.10;;;;;;4999161;28;20025;-83
2023/12/24 02:23:31;;;;;;;0.30;0.30;;;14.60;73.20;;;;;;4974337;28;20120;-82
2023/12/24 02:25:57;;;;;;;0.30;0.20;;;14.60;73.20;;;;;;4975359;28;20042;-82
2023/12/24 02:28:27;;;;;;;0.30;0.28;;;14.60;73.30;;;;;;4994244;28;20173;-82
2023/12/24 02:30:57;;;;;;;0.30;0.20;;;14.60;73.60;;;;;;4996185;28;20042;-82
2023/12/24 02:33:24;;;;;;;0.50;0.30;;;14.60;73.20;;;;;;4983290;28;20046;-82
2023/12/24 02:35:49;;;;;;;0.63;0.40;;;14.60;73.90;;;;;;4997346;28;20050;-82
2023/12/24 02:38:15;;;;;;;0.20;0.20;;;14.60;73.20;;;;;;4995769;28;20042;-82
2023/12/24 02:40:40;;;;;;;0.25;0.20;;;14.60;73.10;;;;;;4995446;28;20036;-82
2023/12/24 02:43:08;;;;;;;0.40;0.30;;;14.60;73.10;;;;;;4994875;28;20527;-82
2023/12/24 02:45:34;;;;;;;0.65;0.47;;;14.60;73.20;;;;;;5014394;28;20045;-82
2023/12/24 02:48:00;;;;;;;0.52;0.30;;;14.60;73.20;;;;;;5006859;28;20042;-82
2023/12/24 02:50:25;;;;;;;0.40;0.20;;;14.60;73.10;;;;;;4975522;28;20034;-82
2023/12/24 02:52:51;;;;;;;0.50;0.35;;;14.60;73.10;;;;;;4990552;28;20052;-82
2023/12/24 02:55:16;;;;;;;0.35;0.25;;;14.60;73.20;;;;;;4998229;28;20101;-82
2023/12/24 02:57:42;;;;;;;0.30;0.30;;;14.60;73.00;;;;;;4997198;28;20100;-82
2023/12/24 03:00:08;;;;;;;0.57;0.50;;;14.60;73.30;;;;;;5003846;28;20062;-82
2023/12/24 03:02:34;;;;;;;0.50;0.50;;;14.60;73.80;;;;;;4985889;28;20508;-82
2023/12/24 03:05:00;;;;;;;0.38;0.30;;;14.60;73.00;;;;;;4987929;28;20080;-82
2023/12/24 03:07:26;;;;;;;0.25;0.25;;;14.60;73.00;;;;;;4991877;28;20129;-82
2023/12/24 03:09:52;;;;;;;0.30;0.30;;;14.60;73.00;;;;;;5002920;28;20108;-82
2023/12/24 03:12:18;;;;;;;0.63;0.40;;;14.60;73.10;;;;;;4993182;28;20050;-81
2023/12/24 03:14:43;;;;;;;0.35;0.30;;;14.60;73.40;;;;;;4994263;28;20041;-82
2023/12/24 03:17:09;;;;;;;0.50;0.40;;;14.60;73.10;;;;;;4988016;28;20046;-82
2023/12/24 03:19:34;;;;;;;0.20;0.20;;;14.60;73.00;;;;;;4989376;28;20128;-82
2023/12/24 03:22:00;;;;;;;0.28;0.28;;;14.60;73.00;;;;;;4992177;28;20416;-83
2023/12/24 03:24:25;;;;;;;0.88;0.30;;;14.60;73.00;;;;;;4983764;28;20042;-82
2023/12/24 03:26:51;;;;;;;0.60;0.20;;;14.60;73.20;;;;;;4971635;28;20128;-82
2023/12/24 03:29:16;;;;;;;0.38;0.35;;;14.60;73.10;;;;;;4996637;28;20107;-82
2023/12/24 03:31:42;;;;;;;0.40;0.30;;;14.60;73.00;;;;;;5008295;28;20043;-82
2023/12/24 03:34:07;;;;;;;0.75;0.30;;;14.60;73.00;;;;;;4995656;28;20039;-82
2023/12/24 03:36:33;;;;;;;0.73;0.30;;;14.60;73.30;;;;;;5000371;28;20049;-82
2023/12/24 03:38:59;;;;;;;0.30;0.30;;;14.60;73.00;;;;;;4996372;28;20049;-82
2023/12/24 03:41:25;;;;;;;0.43;0.30;;;14.60;73.00;;;;;;4998045;28;20045;-82
2023/12/24 03:43:50;;;;;;;0.40;0.35;;;14.60;72.90;;;;;;4991547;28;20408;-81
2023/12/24 03:46:19;;;;;;;0.40;0.30;;;14.60;73.00;;;;;;4991737;28;20125;-82
2023/12/24 03:48:45;;;;;;;0.60;0.30;;;14.50;73.10;;;;;;4998703;28;20073;-82
2023/12/24 03:51:11;;;;;;;0.40;0.30;;;14.60;73.30;;;;;;4971885;28;20054;-82
2023/12/24 03:53:37;;;;;;;0.30;0.30;;;14.60;73.00;;;;;;4967092;28;20125;-82
2023/12/24 03:56:03;;;;;;;0.40;0.30;;;14.60;73.00;;;;;;4996661;28;20038;-82
2023/12/24 03:58:29;;;;;;;0.50;0.30;;;14.60;73.10;;;;;;4993557;28;20046;-82
2023/12/24 04:00:55;;;;;;;0.30;0.30;;;14.50;72.90;;;;;;4976221;28;20428;-82
2023/12/24 04:03:20;;;;;;;0.40;0.30;;;14.60;73.00;;;;;;4973674;28;20129;-82
2023/12/24 04:05:46;;;;;;;0.82;0.30;;;14.60;73.10;;;;;;4971819;28;20155;-82
2023/12/24 04:08:11;;;;;;;0.63;0.30;;;14.60;73.10;;;;;;4991213;28;20522;-82
2023/12/24 04:10:39;;;;;;;0.70;0.50;;;14.60;73.10;;;;;;4981850;28;20132;-82
2023/12/24 04:13:06;;;;;;;1.33;0.38;;;14.60;73.00;;;;;;5004962;28;20050;-82
2023/12/24 04:15:31;;;;;;;0.60;0.50;;;14.60;73.00;;;;;;4987328;28;20068;-82
2023/12/24 04:17:57;;;;;;;0.40;0.40;;;14.60;72.90;;;;;;4995045;28;20050;-82
2023/12/24 04:20:22;;;;;;;0.40;0.40;;;14.60;73.00;;;;;;4992532;28;20103;-82
2023/12/24 04:22:48;;;;;;;0.32;0.30;;;14.60;72.90;;;;;;4987066;28;20045;-82
2023/12/24 04:25:13;;;;;;;0.50;0.30;;;14.60;73.10;;;;;;5000173;28;20120;-82
2023/12/24 04:27:39;;;;;;;0.40;0.20;;;14.60;72.90;;;;;;4981376;28;20029;-82
2023/12/24 04:30:05;;;;;;;0.70;0.30;;;14.60;73.10;;;;;;5026208;28;20369;-82
2023/12/24 04:32:31;;;;;;;0.35;0.20;;;14.50;72.90;;;;;;5013297;28;20045;-82
2023/12/24 04:34:56;;;;;;;0.40;0.30;;;14.60;73.00;;;;;;5013853;28;20100;-82
2023/12/24 04:37:22;;;;;;;0.50;0.25;;;14.60;73.70;;;;;;4981769;28;20042;-82
2023/12/24 04:39:47;;;;;;;0.25;0.25;;;14.50;73.00;;;;;;4998773;28;20076;-82
2023/12/24 04:42:13;;;;;;;0.40;0.30;;;14.50;73.00;;;;;;5002049;28;20101;-82
2023/12/24 04:44:39;;;;;;;0.52;0.20;;;14.60;73.70;;;;;;4997157;28;20049;-82
2023/12/24 04:47:06;;;;;;;0.75;0.30;;;14.50;72.80;;;;;;4977857;28;20038;-82
2023/12/24 04:49:32;;;;;;;0.80;0.30;;;14.50;72.90;;;;;;4978490;28;20500;-82
2023/12/24 04:51:59;;;;;;;0.10;0.10;;;14.50;73.20;;;;;;4977512;28;20038;-82
2023/12/24 04:54:27;;;;;;;0.40;0.30;;;14.50;73.00;;;;;;5012155;28;20496;-82
2023/12/24 04:56:53;;;;;;;0.20;0.20;;;14.50;72.90;;;;;;4982175;28;20165;-82
2023/12/24 04:59:19;;;;;;;0.30;0.30;;;14.50;72.90;;;;;;5010960;28;20583;-82
2023/12/24 05:01:44;;;;;;;0.75;0.35;;;14.50;72.90;;;;;;5014255;28;20042;-82
2023/12/24 05:04:10;;;;;;;0.55;0.30;;;14.50;72.90;;;;;;4982755;28;20038;-82
2023/12/24 05:06:35;;;;;;;0.35;0.20;;;14.50;72.90;;;;;;5013336;28;20059;-82
2023/12/24 05:09:01;;;;;;;0.88;0.40;;;14.50;73.10;;;;;;4999234;28;20586;-82
2023/12/24 05:11:26;;;;;;;0.43;0.40;;;14.50;72.80;;;;;;4983894;28;20045;-82
2023/12/24 05:13:52;;;;;;;0.57;0.35;;;14.50;72.80;;;;;;4998178;28;20166;-82
2023/12/24 05:16:17;;;;;;;0.30;0.30;;;14.60;72.90;;;;;;4980501;28;20156;-81
2023/12/24 05:18:43;;;;;;;0.50;0.32;;;14.50;72.90;;;;;;4982843;28;20045;-82
2023/12/24 05:21:08;;;;;;;0.80;0.30;;;14.50;72.90;;;;;;5015185;28;20041;-82
2023/12/24 05:23:34;;;;;;;0.30;0.20;;;14.50;73.00;;;;;;4989714;28;20034;-82
2023/12/24 05:26:00;;;;;;;0.55;0.30;;;14.50;72.80;;;;;;4979898;28;20523;-82
2023/12/24 05:28:25;;;;;;;0.30;0.30;;;14.50;72.80;;;;;;4979536;28;20100;-82
2023/12/24 05:30:51;;;;;;;0.90;0.55;;;14.50;73.10;;;;;;4992334;28;20114;-82
2023/12/24 05:33:16;;;;;;;0.68;0.30;;;14.50;73.00;;;;;;5018751;28;20079;-82
2023/12/24 05:35:42;;;;;;;0.47;0.30;;;14.50;73.00;;;;;;4994245;28;20078;-82
2023/12/24 05:38:07;;;;;;;0.40;0.35;;;14.50;73.00;;;;;;4988835;28;20073;-82
2023/12/24 05:40:33;;;;;;;0.30;0.30;;;14.50;73.00;;;;;;4980140;28;20530;-82
2023/12/24 05:42:59;;;;;;;0.57;0.32;;;14.50;72.90;;;;;;5012556;28;20038;-82
2023/12/24 05:45:24;;;;;;;0.43;0.30;;;14.50;72.90;;;;;;5001975;28;20041;-82
2023/12/24 05:47:50;;;;;;;0.55;0.35;;;14.50;72.90;;;;;;5009665;28;20092;-82
2023/12/24 05:50:15;;;;;;;0.50;0.35;;;14.50;72.80;;;;;;4994952;28;20042;-82
2023/12/24 05:52:41;;;;;;;0.57;0.40;;;14.50;72.80;;;;;;4994552;28;20045;-82
2023/12/24 05:55:07;;;;;;;0.73;0.40;;;14.50;72.90;;;;;;5008397;28;20104;-82
2023/12/24 05:57:33;;;;;;;0.52;0.22;;;14.50;72.90;;;;;;4983753;28;20129;-82
2023/12/24 05:59:59;;;;;;;0.90;0.50;;;14.50;72.90;;;;;;4987164;28;20129;-82
2023/12/24 06:02:25;;;;;;;0.57;0.40;;;14.50;73.00;;;;;;4992926;28;20092;-82
2023/12/24 06:04:50;;;;;;;0.50;0.30;;;14.50;72.90;;;;;;4994260;28;20592;-82
2023/12/24 06:07:16;;;;;;;0.50;0.50;;;14.50;73.00;;;;;;5010110;28;20038;-82
2023/12/24 06:09:41;;;;;;;0.52;0.45;;;14.50;72.90;;;;;;4990512;28;20038;-82
2023/12/24 06:12:07;;;;;;;0.63;0.50;;;14.50;73.00;;;;;;4993159;28;20069;-82
2023/12/24 06:14:33;;;;;;;0.70;0.43;;;14.50;72.90;;;;;;5013796;28;20415;-82
2023/12/24 06:16:59;;;;;;;0.32;0.30;;;14.50;73.60;;;;;;4991840;28;20046;-82
2023/12/24 06:19:24;;;;;;;1.02;0.32;;;14.50;72.80;;;;;;4995944;28;20635;-82
2023/12/24 06:21:50;;;;;;;0.60;0.38;;;14.50;73.00;;;;;;4998674;28;20034;-82
2023/12/24 06:24:20;;;;;;;0.40;0.40;;;14.50;72.80;;;;;;5001968;28;20038;-81
2023/12/24 06:26:49;;;;;;;0.88;0.55;;;14.50;72.80;;;;;;4993402;28;20066;-82
2023/12/24 06:29:15;;;;;;;0.63;0.43;;;14.50;72.80;;;;;;4981681;28;20133;-82
2023/12/24 06:31:40;;;;;;;0.80;0.40;;;14.50;72.80;;;;;;4997977;28;20484;-82
2023/12/24 06:34:06;;;;;;;1.27;0.25;;;14.50;72.90;;;;;;4975442;28;20163;-81
2023/12/24 06:36:32;;;;;;;0.45;0.30;;;14.50;73.00;;;;;;4988042;28;20042;-82
2023/12/24 06:38:57;;;;;;;1.00;0.40;;;14.50;73.00;;;;;;4974798;28;20035;-82
2023/12/24 06:41:23;;;;;;;0.68;0.35;;;14.50;73.20;;;;;;4985585;28;20141;-82
2023/12/24 06:43:49;;;;;;;0.80;0.52;;;14.50;72.90;;;;;;5007970;28;20080;-81
2023/12/24 06:46:15;;;;;;;1.33;0.63;;;14.50;73.80;;;;;;5003053;28;20046;-82
2023/12/24 06:48:41;;;;;;;0.40;0.38;;;14.50;72.90;;;;;;4980491;28;20048;-82
2023/12/24 06:51:07;;;;;;;1.00;0.40;;;14.50;74.60;;;;;;5012710;28;20054;-82
2023/12/24 06:53:32;;;;;;;0.40;0.30;;;14.50;73.00;;;;;;4994515;28;20046;-82
2023/12/24 06:55:58;;;;;;;0.43;0.30;;;14.50;72.90;;;;;;4998297;28;20035;-82
2023/12/24 06:58:23;;;;;;;0.40;0.30;;;14.50;72.90;;;;;;5007067;28;20056;-81
2023/12/24 07:00:49;;;;;;;0.70;0.35;;;14.50;73.00;;;;;;5007086;28;20557;-82
2023/12/24 07:03:14;;;;;;;0.40;0.30;;;14.50;73.00;;;;;;5003161;28;20435;-82
2023/12/24 07:05:41;;;;;;;0.88;0.50;;;14.50;73.10;;;;;;5002568;28;20032;-82
2023/12/24 07:08:07;;;;;;;0.50;0.40;;;14.50;73.30;;;;;;4995659;28;20408;-81
2023/12/24 07:10:33;;;;;;;0.93;0.30;;;14.50;73.00;;;;;;5015734;28;20048;-82
2023/12/24 07:12:59;;;;;;;0.38;0.38;;;14.50;73.10;;;;;;5017207;28;20049;-82
2023/12/24 07:15:25;;;;;;;0.73;0.45;;;14.50;73.00;;;;;;5003925;28;20049;-82
2023/12/24 07:17:50;;;;;;;1.00;0.60;;;14.50;73.00;;;;;;5014363;28;20466;-81
2023/12/24 07:20:16;;;;;;;0.55;0.30;;;14.50;73.00;;;;;;4992021;28;20230;-82
2023/12/24 07:22:42;;;;;;;0.63;0.30;;;14.50;73.00;;;;;;4967386;28;20046;-81
2023/12/24 07:25:08;;;;;;;0.30;0.30;;;14.50;73.00;;;;;;4997745;28;20045;-82
2023/12/24 07:27:33;;;;;;;0.65;0.40;;;14.50;73.00;;;;;;5001438;28;20042;-81
2023/12/24 07:29:59;;;;;;;0.55;0.35;;;14.50;72.90;;;;;;4979777;28;20034;-82
2023/12/24 07:32:25;;;;;;;0.90;0.47;;;14.50;73.00;;;;;;4990055;28;20046;-81
2023/12/24 07:34:50;;;;;;;0.63;0.57;;;14.50;72.90;;;;;;4975381;28;20053;-81
2023/12/24 07:37:16;;;;;;;0.65;0.40;;;14.50;73.00;;;;;;5010878;28;20108;-82
2023/12/24 07:39:42;;;;;;;1.10;0.50;;;14.50;73.00;;;;;;4998344;28;20073;-82
2023/12/24 07:42:07;;;;;;;0.80;0.50;;;14.50;73.00;;;;;;4978940;28;20505;-82
2023/12/24 07:44:33;;;;;;;0.75;0.43;;;14.50;73.00;;;;;;4995915;28;20416;-82
2023/12/24 07:46:59;;;;;;;0.68;0.40;;;14.50;73.10;;;;;;4988747;28;20054;-82
2023/12/24 07:49:26;;;;;;;0.40;0.20;;;14.50;73.20;;;;;;4992389;28;20074;-82
2023/12/24 07:51:54;;;;;;;0.47;0.25;;;14.50;73.10;;;;;;4982157;28;20042;-81
2023/12/24 07:54:20;;;;;;;0.32;0.28;;;14.50;73.10;;;;;;4995164;28;20047;-81
2023/12/24 07:56:45;;;;;;;1.05;0.50;;;14.50;73.10;;;;;;5000023;28;20026;-81
2023/12/24 07:59:11;;;;;;;1.17;0.50;;;14.50;73.10;;;;;;4989926;28;20045;-81
2023/12/24 08:01:39;;;;;;;0.40;0.30;;;14.50;73.80;;;;;;4968914;28;20061;-81
2023/12/24 08:04:05;;;;;;;0.40;0.30;;;14.50;73.00;;;;;;4982991;28;20098;-81
2023/12/24 08:06:31;;;;;;;0.90;0.50;;;14.50;73.00;;;;;;5000239;28;20067;-81
2023/12/24 08:08:57;;;;;;;0.82;0.43;;;14.50;73.10;;;;;;4987224;28;20044;-81
2023/12/24 08:11:22;;;;;;;0.60;0.40;;;14.50;73.20;;;;;;4972950;28;20054;-81
2023/12/24 08:13:48;;;;;;;0.70;0.30;;;14.50;73.10;;;;;;5011427;28;20084;-81
2023/12/24 08:16:14;;;;;;;1.38;0.40;;;14.50;73.10;;;;;;4980423;28;20392;-81
2023/12/24 08:18:39;;;;;;;1.25;0.70;;;14.50;73.20;;;;;;4981435;28;20034;-82
2023/12/24 08:21:07;;;;;;;0.70;0.50;;;14.50;73.20;;;;;;4985676;28;20053;-81
2023/12/24 08:23:32;;;;;;;0.55;0.40;;;14.50;73.10;;;;;;5003003;28;20033;-81
2023/12/24 08:25:58;;;;;;;0.52;0.50;;;14.50;73.00;;;;;;5006323;28;20054;-81
2023/12/24 08:28:24;;;;;;;0.57;0.45;;;14.50;73.10;;;;;;4993662;28;20092;-81
2023/12/24 08:30:49;;;;;;;0.38;0.30;;;14.50;73.00;;;;;;4999224;28;20056;-82
2023/12/24 08:33:15;;;;;;;0.75;0.43;;;14.50;73.10;;;;;;4994459;28;20100;-81
2023/12/24 08:35:40;;;;;;;0.73;0.30;;;14.50;73.00;;;;;;5011958;28;20038;-82
2023/12/24 08:38:06;;;;;;;0.60;0.50;;;14.50;73.00;;;;;;4995675;28;20050;-81
2023/12/24 08:40:31;;;;;;;0.60;0.30;;;14.50;72.80;;;;;;5009204;28;20492;-81
2023/12/24 08:42:57;;;;;;;0.60;0.57;;;14.50;72.90;;;;;;5005397;28;20129;-81
2023/12/24 08:45:23;;;;;;;0.65;0.40;;;14.50;72.90;;;;;;4978899;28;20446;-81
2023/12/24 08:47:48;;;;;;;1.77;0.30;;;14.50;73.00;;;;;;4979343;28;20124;-81
2023/12/24 08:50:14;;;;;;;0.57;0.43;;;14.50;72.90;;;;;;4982801;28;20045;-81
2023/12/24 08:52:40;;;;;;;0.52;0.50;;;14.50;72.80;;;;;;5000717;28;20049;-82
2023/12/24 08:55:06;;;;;;;0.55;0.40;;;14.50;72.80;;;;;;4995954;28;20076;-82
2023/12/24 08:57:31;;;;;;;1.35;0.50;;;14.50;72.90;;;;;;5015327;28;20046;-81
2023/12/24 08:59:57;;;;;;;0.50;0.30;;;14.50;72.80;;;;;;5008353;28;20506;-81
2023/12/24 09:02:23;;;;;;;0.68;0.40;;;14.60;72.90;;;;;;5000375;28;20199;-81
2023/12/24 09:04:49;;;;;;;0.95;0.40;;;14.50;72.90;;;;;;5014812;28;20045;-81
2023/12/24 09:07:16;;;;;;;0.55;0.40;;;14.50;73.10;;;;;;4993788;28;20038;-81
2023/12/24 09:09:42;;;;;;;0.50;0.20;;;14.50;72.90;;;;;;5000760;28;20080;-81
2023/12/24 09:12:07;;;;;;;0.63;0.50;;;14.50;73.40;;;;;;5005304;28;20077;-81
2023/12/24 09:14:33;;;;;;;0.50;0.50;;;14.60;73.00;;;;;;5000645;28;20512;-82
2023/12/24 09:16:59;;;;;;;0.50;0.50;;;14.60;72.90;;;;;;4979500;28;20104;-82
2023/12/24 09:19:25;;;;;;;0.32;0.32;;;14.60;72.60;;;;;;4999879;28;20164;-82
2023/12/24 09:21:50;;;;;;;0.98;0.40;;;14.60;72.50;;;;;;5013840;28;20074;-81
2023/12/24 09:24:16;;;;;;;0.38;0.28;;;14.60;72.70;;;;;;4991070;28;20095;-81
2023/12/24 09:26:41;;;;;;;0.63;0.43;;;14.70;72.60;;;;;;5012590;28;20045;-82
2023/12/24 09:29:07;;;;;;;2.05;0.80;;;14.70;72.40;;;;;;5001825;28;20374;-81
2023/12/24 09:31:32;;;;;;;0.30;0.20;;;14.70;72.50;;;;;;4996061;28;20049;-81
2023/12/24 09:33:59;;;;;;;0.68;0.40;;;14.70;72.50;;;;;;4981577;28;20070;-81
2023/12/24 09:36:25;;;;;;;0.68;0.50;;;14.70;72.70;;;;;;4999880;28;20054;-81
2023/12/24 09:38:50;;;;;;;0.80;0.45;;;14.70;72.60;;;;;;4995467;28;20535;-82
2023/12/24 09:41:17;;;;;;;0.45;0.30;;;14.70;72.50;;;;;;5015611;28;20049;-81
2023/12/24 09:43:43;;;;;;;0.90;0.40;;;14.70;72.30;;;;;;5012040;28;20515;-82
2023/12/24 09:46:09;;;;;;;1.77;0.35;;;14.70;72.50;;;;;;4986466;28;20105;-81
2023/12/24 09:48:34;;;;;;;0.60;0.50;;;14.70;72.50;;;;;;4997497;28;20510;-81
2023/12/24 09:51:01;;;;;;;0.50;0.45;;;14.70;72.40;;;;;;4986311;28;20048;-81
2023/12/24 09:53:27;;;;;;;0.90;0.43;;;14.80;72.40;;;;;;4991174;28;20165;-81
2023/12/24 09:55:52;;;;;;;0.65;0.47;;;14.80;72.30;;;;;;5006329;28;20182;-81
2023/12/24 09:58:18;;;;;;;0.57;0.40;;;14.70;72.30;;;;;;4995739;28;20129;-81
2023/12/24 10:00:44;;;;;;;0.65;0.63;;;14.80;72.40;;;;;;5005554;28;20515;-81
2023/12/24 10:03:09;;;;;;;0.77;0.40;;;14.70;72.20;;;;;;4987537;28;20050;-81
2023/12/24 10:06:03;;;;;;;0.60;0.38;;;14.70;72.30;;;;;;4982033;28;20107;-81
2023/12/24 10:08:33;;;;;;;0.80;0.50;;;14.80;72.30;;;;;;4981875;28;20050;-81
2023/12/24 10:11:20;;;;;;;0.90;0.60;;;14.80;72.40;;;;;;4991377;28;20644;-81
2023/12/24 10:13:57;;;;;;;1.33;0.73;;;14.80;72.40;;;;;;5012120;28;20099;-81
2023/12/24 10:16:22;;;;;;;0.75;0.55;;;14.80;72.40;;;;;;5012204;28;20088;-81
2023/12/24 10:18:53;;;;;;;1.42;0.70;;;14.80;72.20;;;;;;4998246;28;20055;-82
2023/12/24 10:21:19;;;;;;;0.90;0.40;;;14.80;72.30;;;;;;4996996;28;20463;-82
2023/12/24 10:23:45;;;;;;;0.70;0.30;;;14.80;72.30;;;;;;4996133;28;20038;-81
2023/12/24 10:26:12;;;;;;;0.95;0.60;;;14.80;72.20;;;;;;4996827;28;20853;-81
2023/12/24 10:28:50;;;;;;;0.68;0.30;;;14.80;72.30;;;;;;4998909;28;20037;-81
2023/12/24 10:31:16;;;;;;;0.50;0.40;;;14.80;72.20;;;;;;4989187;28;20049;-81
2023/12/24 10:33:42;;;;;;;1.30;0.43;;;14.80;73.00;;;;;;5011692;28;20129;-81
2023/12/24 10:36:08;;;;;;;0.95;0.38;;;14.80;72.10;;;;;;5014703;28;20034;-80
2023/12/24 10:38:37;;;;;;;0.88;0.70;;;14.80;72.10;;;;;;4996650;28;20423;-80
2023/12/24 10:41:03;;;;;;;0.88;0.45;;;14.80;72.10;;;;;;4996439;28;20046;-80
2023/12/24 10:43:28;;;;;;;0.98;0.75;;;14.80;72.20;;;;;;5010419;28;20055;-81
2023/12/24 10:45:55;;;;;;;0.55;0.35;;;14.80;72.20;;;;;;4994825;28;20042;-80
2023/12/24 10:48:21;;;;;;;0.52;0.45;;;14.80;72.30;;;;;;4963667;28;20523;-80
2023/12/24 10:50:47;;;;;;;0.85;0.50;;;14.80;72.20;;;;;;4993785;28;20088;-80
2023/12/24 10:53:15;;;;;;;0.70;0.40;;;14.90;72.30;;;;;;4992493;28;20553;-80
2023/12/24 10:56:04;;;;;;;0.98;0.50;;;14.80;72.30;;;;;;4989599;28;20116;-80
2023/12/24 10:58:44;;;;;;;0.50;0.32;;;14.80;72.30;;;;;;4983549;28;20121;-80
2023/12/24 11:01:10;;;;;;;0.40;0.40;;;14.80;72.20;;;;;;4986872;28;20038;-80
2023/12/24 11:03:48;;;;;;;0.47;0.22;;;14.80;72.40;;;;;;5003653;28;20703;-80
2023/12/24 11:06:36;;;;;;;1.50;0.60;;;14.90;72.40;;;;;;4996453;28;20042;-80
2023/12/24 11:09:10;;;;;;;1.13;0.60;;;14.80;72.30;;;;;;5000410;28;20087;-81
2023/12/24 11:11:52;;;;;;;0.80;0.63;;;14.80;72.30;;;;;;4975345;28;20141;-80
2023/12/24 11:14:36;;;;;;;0.85;0.40;;;14.80;72.50;;;;;;5007371;28;20121;-80
2023/12/24 11:17:02;;;;;;;0.93;0.40;;;14.80;72.40;;;;;;4991739;28;20045;-80
2023/12/24 11:19:28;;;;;;;0.80;0.30;;;14.80;72.30;;;;;;4980291;28;20030;-80
2023/12/24 11:22:12;;;;;;;0.90;0.30;;;14.80;72.30;;;;;;4979970;28;20080;-80
2023/12/24 11:24:44;;;;;;;0.50;0.40;;;14.80;72.30;;;;;;4990998;28;20535;-80
2023/12/24 11:27:10;;;;;;;0.90;0.40;;;14.80;72.30;;;;;;4982283;28;20107;-80
2023/12/24 11:29:46;;;;;;;0.73;0.45;;;14.90;72.10;;;;;;4990041;28;20076;-80
2023/12/24 11:32:26;;;;;;;0.43;0.30;;;14.80;72.20;;;;;;5009946;28;20077;-80
2023/12/24 11:34:52;;;;;;;0.80;0.40;;;14.90;72.00;;;;;;5011270;28;20091;-80
2023/12/24 11:37:31;;;;;;;0.47;0.47;;;14.90;72.90;;;;;;5000388;28;20091;-80
2023/12/24 11:40:09;;;;;;;1.42;0.60;;;14.90;72.00;;;;;;5018581;28;20089;-81
2023/12/24 11:42:42;;;;;;;0.75;0.45;;;14.90;72.00;;;;;;5012945;28;20041;-80
2023/12/24 11:45:16;;;;;;;1.02;0.43;;;14.90;71.90;;;;;;5000823;28;20034;-80
2023/12/24 11:47:42;;;;;;;1.13;0.45;;;15.00;72.00;;;;;;4996441;28;20097;-79
2023/12/24 11:50:08;;;;;;;0.93;0.43;;;15.00;71.70;;;;;;4998407;28;20432;-81
2023/12/24 11:52:34;;;;;;;0.70;0.40;;;15.00;71.80;;;;;;5000053;28;20405;-80
2023/12/24 11:55:00;;;;;;;0.68;0.32;;;15.00;71.70;;;;;;4984111;28;20053;-80
2023/12/24 11:57:25;;;;;;;0.75;0.50;;;15.00;71.50;;;;;;5003854;28;20034;-80
2023/12/24 11:59:51;;;;;;;0.73;0.50;;;15.00;71.60;;;;;;4996872;28;20042;-80
2023/12/24 12:02:17;;;;;;;1.40;0.60;;;15.00;71.70;;;;;;4996949;28;20049;-80
2023/12/24 12:04:44;;;;;;;1.52;0.68;;;15.00;72.60;;;;;;4975852;28;20121;-80
2023/12/24 12:07:09;;;;;;;0.77;0.40;;;15.00;71.60;;;;;;4995589;28;20496;-81
2023/12/24 12:09:35;;;;;;;0.85;0.60;;;15.00;71.50;;;;;;4989251;28;20041;-80
2023/12/24 12:12:00;;;;;;;0.60;0.60;;;15.10;71.50;;;;;;4995262;28;20503;-80
2023/12/24 12:14:26;;;;;;;0.55;0.38;;;15.10;71.50;;;;;;4982494;28;20064;-80
2023/12/24 12:16:51;;;;;;;0.63;0.50;;;15.10;71.60;;;;;;4980858;28;20088;-80
2023/12/24 12:19:17;;;;;;;0.73;0.60;;;15.10;72.30;;;;;;4999433;28;20049;-80
2023/12/24 12:21:45;;;;;;;0.65;0.50;;;15.10;71.40;;;;;;5001337;28;20527;-80
2023/12/24 12:24:11;;;;;;;0.50;0.50;;;15.20;72.10;;;;;;5016221;28;20455;-80
2023/12/24 12:26:36;;;;;;;1.05;0.60;;;15.20;71.30;;;;;;4997816;28;20045;-80
2023/12/24 12:29:02;;;;;;;0.60;0.30;;;15.20;71.40;;;;;;4979373;28;20520;-81
2023/12/24 12:31:28;;;;;;;0.80;0.35;;;15.20;71.30;;;;;;5000792;28;20041;-80
2023/12/24 12:33:53;;;;;;;0.55;0.38;;;15.20;71.40;;;;;;4997319;28;20041;-80
2023/12/24 12:36:19;;;;;;;0.50;0.43;;;15.20;71.70;;;;;;5014452;28;20042;-80
2023/12/24 12:38:45;;;;;;;1.00;0.50;;;15.20;71.50;;;;;;4998022;28;20053;-80
2023/12/24 12:41:10;;;;;;;1.10;0.65;;;15.20;71.60;;;;;;4994742;28;20125;-81
2023/12/24 12:43:36;;;;;;;0.75;0.50;;;15.20;71.40;;;;;;4983012;28;20040;-80